createdAt,value
2023-05-05T00:02:29.012Z,18.54
2023-05-05T00:06:31.321Z,18.53
2023-05-05T00:10:32.934Z,18.50
2023-05-05T00:14:34.485Z,18.50
2023-05-05T00:18:36.054Z,18.47
2023-05-05T00:22:37.621Z,18.49
2023-05-05T00:26:39.224Z,18.42
2023-05-05T00:30:40.848Z,18.41
2023-05-05T00:34:42.452Z,18.38
2023-05-05T00:38:43.968Z,18.28
2023-05-05T00:42:47.803Z,18.20
2023-05-05T00:46:49.370Z,18.14
2023-05-05T00:50:51.261Z,18.14
2023-05-05T00:54:53.799Z,18.13
2023-05-05T00:58:56.148Z,18.07
2023-05-05T01:02:58.007Z,18.07
2023-05-05T01:07:12.469Z,18.02
2023-05-05T01:11:41.720Z,17.95
2023-05-05T01:16:12.130Z,17.91
2023-05-05T01:20:31.016Z,17.83
2023-05-05T01:24:57.092Z,17.79
2023-05-05T01:29:22.835Z,17.70
2023-05-05T01:33:27.603Z,17.70
2023-05-05T01:38:05.468Z,17.68
2023-05-05T01:42:14.010Z,17.58
2023-05-05T01:46:16.564Z,17.46
2023-05-05T01:50:18.989Z,17.46
2023-05-05T01:54:21.444Z,17.45
2023-05-05T01:58:24.358Z,17.42
2023-05-05T02:02:28.330Z,17.40
2023-05-05T02:06:32.452Z,17.36
2023-05-05T02:10:34.378Z,17.28
2023-05-05T02:14:37.785Z,17.27
2023-05-05T02:18:40.260Z,17.24
2023-05-05T02:22:42.060Z,17.20
2023-05-05T02:26:45.863Z,17.20
2023-05-05T02:30:55.422Z,17.09
2023-05-05T02:35:01.320Z,17.03
2023-05-05T02:39:09.745Z,16.96
2023-05-05T02:43:18.013Z,16.88
2023-05-05T02:47:20.957Z,16.82
2023-05-05T02:51:24.085Z,16.78
2023-05-05T02:55:42.215Z,16.75
2023-05-05T03:00:05.695Z,16.70
2023-05-05T03:04:15.470Z,16.65
2023-05-05T03:08:43.915Z,16.57
2023-05-05T03:12:56.452Z,16.54
2023-05-05T03:17:06.146Z,16.57
2023-05-05T03:21:09.493Z,16.55
2023-05-05T03:25:14.446Z,16.48
2023-05-05T03:29:17.122Z,16.48
2023-05-05T03:33:19.559Z,16.45
2023-05-05T03:37:22.071Z,16.41
2023-05-05T03:41:24.273Z,16.42
2023-05-05T03:45:27.303Z,16.48
2023-05-05T03:49:29.780Z,16.47
2023-05-05T03:53:32.336Z,16.47
2023-05-05T03:57:35.865Z,16.44
2023-05-05T04:01:37.487Z,16.42
2023-05-05T04:05:39.584Z,16.42
2023-05-05T04:09:44.515Z,16.36
2023-05-05T04:13:48.532Z,16.36
2023-05-05T04:17:50.514Z,16.32
2023-05-05T04:21:52.308Z,16.29
2023-05-05T04:25:54.549Z,16.29
2023-05-05T04:29:57.073Z,16.33
2023-05-05T04:33:59.440Z,16.37
2023-05-05T04:38:01.869Z,16.44
2023-05-05T04:42:04.126Z,16.51
2023-05-05T04:46:05.928Z,16.52
2023-05-05T04:50:11.378Z,16.51
2023-05-05T04:54:13.773Z,16.55
2023-05-05T04:58:15.755Z,16.57
2023-05-05T05:02:19.167Z,16.66
2023-05-05T05:06:21.097Z,16.77
2023-05-05T05:10:22.743Z,16.88
2023-05-05T05:14:24.624Z,16.99
2023-05-05T05:18:26.236Z,17.12
2023-05-05T05:22:28.753Z,17.22
2023-05-05T05:26:30.411Z,17.28
2023-05-05T05:30:32.771Z,17.35
2023-05-05T05:34:34.528Z,17.46
2023-05-05T05:38:37.282Z,17.51
2023-05-05T05:42:42.557Z,17.54
2023-05-05T05:46:44.952Z,17.57
2023-05-05T05:50:46.686Z,17.66
2023-05-05T05:54:48.836Z,17.68
2023-05-05T05:58:51.459Z,17.66
2023-05-05T06:02:54.584Z,17.74
2023-05-05T06:06:59.805Z,17.84
2023-05-05T06:11:01.652Z,17.98
2023-05-05T06:15:04.727Z,18.10
2023-05-05T06:19:09.597Z,18.19
2023-05-05T06:23:11.722Z,18.29
2023-05-05T06:27:18.038Z,18.38
2023-05-05T06:31:19.625Z,18.44
2023-05-05T06:35:22.198Z,18.46
2023-05-05T06:39:23.849Z,18.50
2023-05-05T06:43:25.724Z,18.60
2023-05-05T06:47:32.996Z,18.68
2023-05-05T06:51:35.435Z,18.84
2023-05-05T06:55:37.228Z,18.93
2023-05-05T06:59:38.813Z,19.07
2023-05-05T07:03:40.587Z,19.10
2023-05-05T07:07:55.862Z,19.20
2023-05-05T07:11:57.505Z,19.34
2023-05-05T07:15:59.722Z,19.52
2023-05-05T07:20:01.864Z,19.70
2023-05-05T07:24:04.061Z,19.85
2023-05-05T07:28:05.790Z,20.04
2023-05-05T07:32:07.438Z,20.19
2023-05-05T07:36:09.074Z,20.41
2023-05-05T07:40:11.381Z,20.63
2023-05-05T07:44:13.254Z,20.82
2023-05-05T07:48:14.889Z,20.88
2023-05-05T07:52:16.661Z,20.90
2023-05-05T07:56:19.315Z,20.96
2023-05-05T08:00:22.199Z,21.00
2023-05-05T08:04:23.995Z,21.01
2023-05-05T08:08:26.966Z,21.12
2023-05-05T08:12:28.537Z,21.15
2023-05-05T08:16:30.203Z,21.18
2023-05-05T08:20:32.040Z,21.13
2023-05-05T08:24:33.671Z,21.05
2023-05-05T08:28:38.942Z,20.93
2023-05-05T08:32:40.615Z,20.82
2023-05-05T08:36:42.177Z,20.88
2023-05-05T08:40:43.854Z,21.00
2023-05-05T08:44:45.563Z,21.09
2023-05-05T08:48:48.779Z,21.16
2023-05-05T08:52:54.273Z,21.26
2023-05-05T08:56:59.821Z,21.33
2023-05-05T09:01:01.806Z,21.46
2023-05-05T09:05:05.434Z,21.56
2023-05-05T09:09:08.138Z,21.73
2023-05-05T09:13:09.926Z,21.83
2023-05-05T09:17:27.237Z,21.96
2023-05-05T09:21:29.439Z,22.06
2023-05-05T09:25:31.044Z,22.20
2023-05-05T09:29:32.670Z,22.29
2023-05-05T09:33:34.312Z,22.36
2023-05-05T09:37:36.119Z,22.45
2023-05-05T09:41:42.123Z,22.51
2023-05-05T09:45:43.839Z,22.60
2023-05-05T09:49:45.545Z,22.76
2023-05-05T09:53:47.184Z,22.89
2023-05-05T09:57:48.811Z,22.97
2023-05-05T10:01:51.553Z,23.07
2023-05-05T10:05:58.955Z,23.25
2023-05-05T10:10:00.555Z,23.31
2023-05-05T10:14:06.516Z,23.45
2023-05-05T10:18:08.696Z,23.56
2023-05-05T10:22:10.748Z,23.71
2023-05-05T10:26:14.290Z,23.86
2023-05-05T10:30:29.297Z,24.02
2023-05-05T10:34:38.479Z,24.15
2023-05-05T10:38:41.711Z,24.29
2023-05-05T10:42:43.537Z,24.52
2023-05-05T10:46:46.101Z,24.66
2023-05-05T10:50:53.849Z,24.64
2023-05-05T10:55:26.944Z,24.83
2023-05-05T10:59:37.730Z,24.89
2023-05-05T11:03:39.518Z,24.86
2023-05-05T11:07:46.136Z,24.84
2023-05-05T11:12:05.416Z,24.89
2023-05-05T11:16:42.609Z,25.01
2023-05-05T11:20:45.345Z,24.92
2023-05-05T11:24:47.259Z,24.98
2023-05-05T11:29:00.739Z,25.02
2023-05-05T11:33:24.639Z,25.01
2023-05-05T11:37:27.625Z,25.16
2023-05-05T11:41:32.481Z,25.31
2023-05-05T11:45:35.034Z,25.64
2023-05-05T11:49:38.493Z,25.67
2023-05-05T11:53:44.324Z,25.54
2023-05-05T11:57:46.009Z,25.53
2023-05-05T12:01:47.931Z,25.54
2023-05-05T12:05:53.570Z,25.57
2023-05-05T12:09:55.983Z,25.31
2023-05-05T12:14:08.453Z,25.29
2023-05-05T12:18:20.045Z,25.12
2023-05-05T12:22:23.931Z,24.90
2023-05-05T12:26:27.928Z,24.87
2023-05-05T12:30:29.520Z,24.89
2023-05-05T12:34:31.992Z,24.94
2023-05-05T12:38:33.559Z,25.31
2023-05-05T12:42:38.936Z,25.23
2023-05-05T12:46:47.780Z,25.23
2023-05-05T12:50:49.323Z,25.12
2023-05-05T12:54:58.652Z,25.08
2023-05-05T12:59:10.973Z,25.23
2023-05-05T13:03:21.748Z,25.30
2023-05-05T13:07:23.396Z,25.38
2023-05-05T13:11:25.023Z,25.44
2023-05-05T13:15:27.297Z,25.48
2023-05-05T13:19:28.926Z,25.54
2023-05-05T13:23:30.687Z,25.48
2023-05-05T13:27:32.202Z,25.60
2023-05-05T13:31:33.763Z,25.66
2023-05-05T13:35:35.340Z,25.64
2023-05-05T13:39:37.019Z,25.49
2023-05-05T13:43:38.600Z,25.34
2023-05-05T13:47:41.858Z,25.29
2023-05-05T13:51:43.627Z,25.26
2023-05-05T13:55:45.155Z,25.29
2023-05-05T13:59:46.875Z,25.39
2023-05-05T14:03:48.450Z,25.48
2023-05-05T14:07:50.176Z,25.49
2023-05-05T14:11:51.795Z,25.30
2023-05-05T14:15:53.812Z,25.23
2023-05-05T14:19:57.610Z,25.14
2023-05-05T14:23:59.242Z,25.02
2023-05-05T14:28:00.787Z,24.87
2023-05-05T14:32:02.522Z,24.71
2023-05-05T14:36:04.337Z,24.61
2023-05-05T14:40:06.885Z,24.46
2023-05-05T14:44:08.555Z,24.36
2023-05-05T14:48:10.848Z,24.26
2023-05-05T14:52:12.401Z,24.23
2023-05-05T14:56:14.307Z,24.24
2023-05-05T15:00:16.252Z,24.31
2023-05-05T15:04:17.831Z,24.37
2023-05-05T15:08:19.511Z,24.41
2023-05-05T15:12:21.046Z,24.39
2023-05-05T15:16:23.240Z,24.29
2023-05-05T15:20:24.783Z,24.18
2023-05-05T15:24:26.401Z,24.08
2023-05-05T15:28:27.930Z,24.04
2023-05-05T15:32:30.317Z,23.94
2023-05-05T15:36:32.176Z,23.92
2023-05-05T15:40:33.848Z,23.45
2023-05-05T15:44:35.598Z,23.12
2023-05-05T15:48:37.286Z,22.91
2023-05-05T15:52:38.880Z,22.78
2023-05-05T15:56:40.481Z,22.59
2023-05-05T16:00:41.984Z,21.99
2023-05-05T16:04:43.809Z,21.08
2023-05-05T16:08:47.614Z,20.56
2023-05-05T16:12:49.748Z,20.01
2023-05-05T16:16:51.383Z,19.76
2023-05-05T16:20:53.032Z,19.52
2023-05-05T16:24:54.578Z,19.52
2023-05-05T16:28:56.101Z,19.68
2023-05-05T16:32:57.781Z,19.83
2023-05-05T16:36:59.327Z,19.94
2023-05-05T16:41:01.045Z,20.04
2023-05-05T16:45:02.662Z,20.07
2023-05-05T16:49:04.356Z,20.12
2023-05-05T16:53:05.997Z,20.20
2023-05-05T16:57:07.600Z,20.22
2023-05-05T17:01:09.179Z,20.26
2023-05-05T17:05:11.264Z,20.25
2023-05-05T17:09:12.960Z,20.35
2023-05-05T17:13:14.684Z,20.38
2023-05-05T17:17:16.407Z,20.38
2023-05-05T17:21:18.014Z,20.40
2023-05-05T17:25:19.654Z,20.53
2023-05-05T17:29:23.139Z,20.48
2023-05-05T17:33:24.925Z,20.48
2023-05-05T17:37:27.289Z,20.46
2023-05-05T17:41:28.913Z,20.42
2023-05-05T17:45:30.633Z,20.38
2023-05-05T17:49:32.269Z,20.33
2023-05-05T17:53:33.945Z,20.27
2023-05-05T17:57:35.714Z,20.23
2023-05-05T18:01:37.315Z,20.15
2023-05-05T18:05:39.229Z,20.08
2023-05-05T18:09:41.082Z,19.97
2023-05-05T18:13:43.543Z,19.92
2023-05-05T18:17:45.133Z,19.86
2023-05-05T18:21:47.483Z,19.79
2023-05-05T18:25:49.054Z,19.76
2023-05-05T18:29:50.542Z,19.78
2023-05-05T18:33:52.158Z,19.76
2023-05-05T18:37:54.938Z,19.72
2023-05-05T18:41:56.672Z,19.70
2023-05-05T18:45:58.224Z,19.67
2023-05-05T18:49:59.909Z,19.64
2023-05-05T18:54:01.533Z,19.52
2023-05-05T18:58:03.524Z,19.53
2023-05-05T19:02:05.061Z,19.53
2023-05-05T19:06:07.009Z,19.50
2023-05-05T19:10:09.383Z,19.50
2023-05-05T19:14:10.945Z,19.47
2023-05-05T19:18:12.551Z,19.45
2023-05-05T19:22:17.175Z,19.40
2023-05-05T19:26:18.777Z,19.39
2023-05-05T19:30:20.471Z,19.35
2023-05-05T19:34:22.096Z,19.30
2023-05-05T19:38:23.995Z,19.30
2023-05-05T19:42:26.077Z,19.27
2023-05-05T19:46:27.803Z,19.27
2023-05-05T19:50:30.554Z,19.20
2023-05-05T19:54:32.136Z,19.20
2023-05-05T19:58:55.714Z,19.13
2023-05-05T20:02:57.443Z,19.10
2023-05-05T20:06:59.531Z,19.06
2023-05-05T20:11:01.175Z,19.05
2023-05-05T20:15:03.176Z,19.06
2023-05-05T20:19:05.286Z,18.99
2023-05-05T20:23:07.000Z,18.94
2023-05-05T20:27:08.617Z,18.94
2023-05-05T20:31:10.875Z,18.93
2023-05-05T20:35:13.027Z,18.91
2023-05-05T20:39:16.098Z,18.93
2023-05-05T20:43:18.613Z,18.87
2023-05-05T20:47:20.547Z,18.78
2023-05-05T20:51:22.258Z,18.71
2023-05-05T20:55:24.096Z,18.71
2023-05-05T20:59:28.164Z,18.64
2023-05-05T21:03:29.783Z,18.60
2023-05-05T21:07:34.136Z,18.60
2023-05-05T21:11:35.842Z,18.54
2023-05-05T21:15:37.600Z,18.42
2023-05-05T21:19:39.145Z,18.35
2023-05-05T21:23:40.822Z,18.31
2023-05-05T21:27:42.810Z,18.23
2023-05-05T21:31:44.482Z,18.14
2023-05-05T21:35:46.047Z,18.04
2023-05-05T21:39:49.451Z,17.95
2023-05-05T21:43:50.996Z,17.87
2023-05-05T21:47:52.771Z,17.89
2023-05-05T21:51:54.553Z,17.87
2023-05-05T21:55:56.301Z,17.84
2023-05-05T21:59:57.906Z,17.80
2023-05-05T22:03:59.635Z,17.77
2023-05-05T22:08:01.270Z,17.73
2023-05-05T22:12:02.990Z,17.71
2023-05-05T22:16:08.320Z,17.65
2023-05-05T22:20:10.355Z,17.66
2023-05-05T22:24:12.109Z,17.62
2023-05-05T22:28:13.756Z,17.57
2023-05-05T22:32:15.353Z,17.51
2023-05-05T22:36:17.022Z,17.40
2023-05-05T22:40:18.650Z,17.35
2023-05-05T22:44:20.548Z,17.33
2023-05-05T22:48:22.910Z,17.30
2023-05-05T22:52:25.688Z,17.22
2023-05-05T22:56:27.255Z,17.20
2023-05-05T23:00:28.994Z,17.14
2023-05-05T23:04:30.723Z,17.10
2023-05-05T23:08:32.286Z,16.99
2023-05-05T23:12:33.948Z,17.00
2023-05-05T23:16:35.612Z,16.92
2023-05-05T23:20:37.244Z,16.91
2023-05-05T23:24:38.875Z,16.90
2023-05-05T23:28:40.509Z,16.88
2023-05-05T23:32:44.040Z,16.85
2023-05-05T23:36:46.100Z,16.84
2023-05-05T23:40:47.693Z,16.81
2023-05-05T23:44:49.241Z,16.72
2023-05-05T23:48:51.064Z,16.62
2023-05-05T23:52:52.736Z,16.51
2023-05-05T23:56:54.369Z,16.42
